Time;durP1;ratioP1;P1;durP2;ratioP2;P2;SDS_P1;SDS_P2;PMS_P1;PMS_P2;Temp;Humidity;BMP_temperature;BMP_pressure;BME280_temperature;BME280_humidity;BME280_pressure;Samples;Min_cycle;Max_cycle;Signal;HPM_P1;HPM_P2
2021/05/25 04:02:13;;;;;;;2.97;0.90;;;9.20;99.90;;;;;;5196535;23;20485;-64
2021/05/25 04:04:39;;;;;;;5.00;0.70;;;9.20;99.90;;;;;;5015048;28;20457;-64
2021/05/25 04:07:05;;;;;;;4.70;1.13;;;9.30;99.90;;;;;;5016473;28;20469;-64
2021/05/25 04:09:31;;;;;;;1.90;1.53;;;9.30;99.90;;;;;;5017049;28;20588;-64
2021/05/25 04:11:57;;;;;;;1.60;1.20;;;9.30;99.90;;;;;;5016276;28;20838;-65
2021/05/25 04:14:24;;;;;;;0.97;0.70;;;9.30;99.90;;;;;;5015735;28;20453;-64
2021/05/25 04:16:50;;;;;;;3.00;1.40;;;9.40;99.90;;;;;;5016308;28;20473;-63
2021/05/25 04:19:17;;;;;;;1.50;1.10;;;9.40;99.90;;;;;;5015927;28;20461;-64
2021/05/25 04:21:44;;;;;;;1.30;1.17;;;9.50;99.90;;;;;;5016196;28;20477;-64
2021/05/25 04:24:10;;;;;;;2.00;0.77;;;9.60;99.90;;;;;;5016166;28;20812;-64
2021/05/25 04:26:36;;;;;;;2.70;0.90;;;9.70;99.90;;;;;;5016865;28;20460;-64
2021/05/25 04:29:02;;;;;;;2.10;0.80;;;9.70;99.90;;;;;;5017659;28;20990;-64
2021/05/25 04:31:29;;;;;;;2.10;1.00;;;9.70;99.90;;;;;;5030783;28;20951;-64
2021/05/25 04:33:55;;;;;;;0.77;0.77;;;9.70;99.90;;;;;;5021704;28;20943;-64
2021/05/25 04:36:22;;;;;;;1.57;1.30;;;9.80;99.90;;;;;;5015988;28;20456;-64
2021/05/25 04:38:48;;;;;;;0.97;0.97;;;9.80;99.90;;;;;;5015243;28;20482;-64
2021/05/25 04:41:15;;;;;;;1.53;0.77;;;9.80;99.90;;;;;;5015160;28;20982;-64
2021/05/25 04:43:41;;;;;;;0.90;0.90;;;9.70;99.90;;;;;;5015486;28;20506;-64
2021/05/25 04:46:07;;;;;;;1.70;0.70;;;9.60;99.90;;;;;;5015192;28;20962;-64
2021/05/25 04:48:33;;;;;;;0.83;0.83;;;9.50;99.90;;;;;;5015277;28;20793;-64
2021/05/25 04:51:00;;;;;;;0.70;0.50;;;9.40;99.90;;;;;;5015050;28;21017;-64
2021/05/25 04:53:27;;;;;;;1.90;0.70;;;9.50;99.90;;;;;;5015604;28;20454;-64
2021/05/25 04:55:53;;;;;;;0.93;0.53;;;9.50;99.90;;;;;;5015466;28;20473;-64
2021/05/25 04:58:19;;;;;;;1.10;1.00;;;9.60;99.90;;;;;;5015809;28;20457;-64
2021/05/25 05:00:45;;;;;;;0.70;0.70;;;9.60;99.90;;;;;;5014941;28;20485;-64
2021/05/25 05:03:12;;;;;;;6.17;0.77;;;9.70;99.90;;;;;;5015358;28;20923;-64
2021/05/25 05:05:38;;;;;;;0.53;0.53;;;9.80;99.90;;;;;;5015175;28;20906;-64
2021/05/25 05:08:06;;;;;;;0.70;0.70;;;9.90;99.90;;;;;;5014628;28;20460;-63
2021/05/25 05:10:33;;;;;;;3.03;0.57;;;10.10;99.90;;;;;;5014886;28;20472;-61
2021/05/25 05:13:00;;;;;;;1.07;0.60;;;10.30;99.90;;;;;;5014947;28;20467;-65
2021/05/25 05:15:26;;;;;;;0.60;0.60;;;10.30;99.90;;;;;;5014637;28;20476;-65
2021/05/25 05:17:52;;;;;;;0.50;0.50;;;10.30;99.90;;;;;;5014859;28;20483;-64
2021/05/25 05:20:19;;;;;;;1.80;0.90;;;10.30;99.90;;;;;;5014818;28;20437;-65
2021/05/25 05:22:45;;;;;;;1.90;0.63;;;10.40;99.90;;;;;;5014849;28;20576;-64
2021/05/25 05:25:13;;;;;;;2.23;0.67;;;10.40;99.90;;;;;;5015165;28;20985;-65
2021/05/25 05:27:41;;;;;;;0.60;0.60;;;10.40;99.90;;;;;;5014994;28;20453;-64
2021/05/25 05:30:09;;;;;;;2.67;0.60;;;10.40;99.90;;;;;;5017934;28;20460;-64
2021/05/25 05:32:36;;;;;;;1.43;0.53;;;10.40;99.90;;;;;;5018644;28;20477;-64
2021/05/25 05:35:03;;;;;;;1.00;0.93;;;10.50;99.90;;;;;;5014919;28;20479;-63
2021/05/25 05:37:29;;;;;;;1.13;0.63;;;10.60;99.90;;;;;;5015043;28;20460;-63
2021/05/25 05:39:56;;;;;;;1.23;0.83;;;10.80;99.90;;;;;;5014538;28;20453;-65
2021/05/25 05:42:23;;;;;;;1.60;0.60;;;10.80;99.90;;;;;;5014722;28;20810;-65
2021/05/25 05:44:50;;;;;;;1.13;0.60;;;10.80;99.90;;;;;;5014278;28;20967;-62
2021/05/25 05:47:17;;;;;;;0.50;0.50;;;10.90;99.90;;;;;;5014826;28;20503;-64
2021/05/25 05:49:43;;;;;;;0.50;0.50;;;10.90;99.90;;;;;;5014656;28;20807;-65
2021/05/25 05:52:09;;;;;;;1.17;0.67;;;11.00;99.90;;;;;;5014349;28;20473;-65
2021/05/25 05:54:36;;;;;;;0.60;0.60;;;11.00;99.90;;;;;;5014476;28;20511;-64
2021/05/25 05:57:02;;;;;;;0.43;0.43;;;11.00;99.90;;;;;;5014807;28;20481;-64
2021/05/25 05:59:28;;;;;;;1.33;0.77;;;11.10;99.90;;;;;;5014404;28;20841;-64
2021/05/25 06:01:55;;;;;;;7.60;0.80;;;11.20;99.90;;;;;;5014236;28;20492;-63
2021/05/25 06:04:22;;;;;;;1.53;0.77;;;11.20;99.90;;;;;;5014319;28;20459;-63
2021/05/25 06:06:48;;;;;;;1.40;0.60;;;11.40;99.90;;;;;;5014747;28;20788;-64
2021/05/25 06:09:14;;;;;;;2.10;0.60;;;11.50;99.90;;;;;;5014529;28;20464;-64
2021/05/25 06:11:41;;;;;;;0.80;0.80;;;11.50;99.90;;;;;;5014278;28;20476;-64
2021/05/25 06:14:07;;;;;;;0.90;0.67;;;11.60;99.90;;;;;;5014259;28;20943;-64
2021/05/25 06:16:34;;;;;;;1.00;0.60;;;11.50;99.90;;;;;;5014063;28;20877;-63
2021/05/25 06:19:02;;;;;;;1.17;0.50;;;11.50;99.90;;;;;;5014582;28;20460;-63
2021/05/25 06:21:28;;;;;;;0.80;0.80;;;11.70;99.90;;;;;;5014109;28;20473;-64
2021/05/25 06:23:54;;;;;;;1.07;0.70;;;11.60;99.90;;;;;;5014561;28;20461;-64
2021/05/25 06:26:21;;;;;;;0.70;0.70;;;11.60;99.90;;;;;;5014270;28;20441;-65
2021/05/25 06:28:47;;;;;;;0.87;0.60;;;11.60;99.90;;;;;;5017311;28;20817;-64
2021/05/25 06:31:13;;;;;;;0.83;0.60;;;11.60;99.90;;;;;;5018582;28;20572;-63
2021/05/25 06:33:40;;;;;;;2.40;0.80;;;11.80;99.90;;;;;;5018410;28;20461;-62
2021/05/25 06:36:07;;;;;;;0.90;0.70;;;12.00;99.90;;;;;;5017898;28;20472;-62
2021/05/25 06:38:34;;;;;;;1.23;0.83;;;12.20;99.90;;;;;;5018064;28;20456;-62
2021/05/25 06:41:00;;;;;;;1.00;0.90;;;12.30;99.90;;;;;;5018039;28;20483;-63
2021/05/25 06:43:26;;;;;;;0.67;0.63;;;12.20;99.90;;;;;;5018240;28;20459;-62
2021/05/25 06:45:53;;;;;;;1.30;0.70;;;12.20;99.90;;;;;;5017521;28;20448;-62
2021/05/25 06:48:19;;;;;;;0.57;0.57;;;12.20;99.90;;;;;;5017543;28;20946;-62
2021/05/25 06:50:45;;;;;;;0.60;0.60;;;12.20;99.90;;;;;;5018010;28;20476;-63
2021/05/25 06:53:12;;;;;;;1.73;0.80;;;11.90;99.90;;;;;;5018575;28;20479;-63
2021/05/25 06:55:39;;;;;;;3.20;0.90;;;12.30;99.90;;;;;;5018332;28;20476;-63
2021/05/25 06:58:05;;;;;;;0.60;0.60;;;13.00;99.90;;;;;;5018253;28;20466;-63
2021/05/25 07:00:31;;;;;;;0.77;0.40;;;13.50;99.90;;;;;;5019388;28;20476;-62
2021/05/25 07:02:58;;;;;;;2.37;0.90;;;13.90;99.90;;;;;;5029489;28;20486;-62
2021/05/25 07:05:24;;;;;;;2.43;0.50;;;13.90;99.90;;;;;;5020224;28;20452;-64
2021/05/25 07:07:50;;;;;;;1.00;0.70;;;13.70;99.90;;;;;;5027727;28;20457;-64
2021/05/25 07:10:17;;;;;;;0.70;0.70;;;13.60;99.90;;;;;;5018080;28;20970;-62
2021/05/25 07:12:43;;;;;;;2.10;0.70;;;13.90;99.90;;;;;;5018106;28;20460;-62
2021/05/25 07:15:11;;;;;;;0.70;0.60;;;14.30;99.90;;;;;;5017923;28;20539;-63
2021/05/25 07:17:37;;;;;;;0.77;0.77;;;14.50;99.90;;;;;;5017949;28;20453;-63
2021/05/25 07:20:05;;;;;;;2.00;0.60;;;14.80;99.90;;;;;;5017926;28;20943;-63
2021/05/25 07:22:31;;;;;;;3.93;0.70;;;14.70;99.90;;;;;;5017734;28;20477;-62
2021/05/25 07:24:57;;;;;;;1.20;0.57;;;14.50;99.90;;;;;;5017895;28;20441;-62
2021/05/25 07:27:24;;;;;;;2.40;0.87;;;14.40;99.90;;;;;;5018062;28;20446;-62
2021/05/25 07:29:51;;;;;;;1.20;0.60;;;14.70;99.90;;;;;;5017971;28;20456;-64
2021/05/25 07:32:17;;;;;;;0.60;0.60;;;14.60;99.30;;;;;;5026097;28;20500;-62
2021/05/25 07:34:43;;;;;;;0.87;0.60;;;15.10;99.90;;;;;;5036452;28;20440;-63
2021/05/25 07:37:10;;;;;;;1.07;0.50;;;15.30;98.70;;;;;;5036098;28;20468;-63
2021/05/25 07:39:36;;;;;;;1.27;0.77;;;15.30;97.70;;;;;;5031369;28;20773;-63
2021/05/25 07:42:02;;;;;;;0.40;0.40;;;15.40;97.50;;;;;;5018571;28;20484;-64
2021/05/25 07:44:29;;;;;;;3.97;2.10;;;15.10;97.20;;;;;;5017706;28;20459;-63
2021/05/25 07:46:57;;;;;;;0.80;0.50;;;15.20;96.90;;;;;;5017627;28;20998;-64
2021/05/25 07:49:23;;;;;;;0.60;0.60;;;15.60;96.50;;;;;;5017176;28;20496;-64
2021/05/25 07:51:50;;;;;;;1.13;0.70;;;15.70;96.40;;;;;;5017560;28;20473;-63
2021/05/25 07:54:16;;;;;;;1.93;0.90;;;15.80;95.60;;;;;;5016789;28;20452;-64
2021/05/25 07:56:42;;;;;;;0.70;0.70;;;15.10;95.70;;;;;;5017087;28;20461;-64
2021/05/25 07:59:08;;;;;;;1.70;0.60;;;14.60;96.70;;;;;;5016950;28;20453;-63
2021/05/25 08:01:35;;;;;;;1.30;0.80;;;14.30;97.90;;;;;;5016892;28;20487;-64
2021/05/25 08:04:02;;;;;;;2.33;0.60;;;13.90;98.60;;;;;;5017185;28;20456;-63
2021/05/25 08:06:28;;;;;;;1.13;0.90;;;13.60;99.60;;;;;;5017110;28;20452;-63
2021/05/25 08:08:55;;;;;;;4.03;0.70;;;13.40;99.90;;;;;;5022520;28;20456;-63
2021/05/25 08:11:21;;;;;;;2.20;0.60;;;13.40;99.90;;;;;;5017042;28;20472;-62
2021/05/25 08:13:47;;;;;;;1.07;0.40;;;13.70;99.90;;;;;;5016111;28;20943;-62
2021/05/25 08:16:15;;;;;;;2.73;0.90;;;14.20;98.70;;;;;;5016137;28;20477;-62
2021/05/25 08:18:50;;;;;;;2.10;0.63;;;14.90;98.20;;;;;;5016468;28;20518;-64
2021/05/25 08:21:17;;;;;;;1.63;0.60;;;15.30;97.30;;;;;;5016319;28;20480;-62
2021/05/25 08:23:43;;;;;;;1.10;0.70;;;15.60;95.30;;;;;;5015799;28;20440;-63
2021/05/25 08:26:10;;;;;;;8.33;1.17;;;15.70;95.50;;;;;;5016154;28;20449;-64
2021/05/25 08:28:36;;;;;;;5.60;1.03;;;15.70;95.80;;;;;;5016257;28;20874;-63
2021/05/25 08:31:03;;;;;;;2.40;0.73;;;15.40;94.60;;;;;;5016400;28;20531;-64
2021/05/25 08:33:29;;;;;;;1.13;0.97;;;15.20;95.70;;;;;;5027287;28;20452;-64
2021/05/25 08:35:56;;;;;;;0.80;0.80;;;14.80;95.70;;;;;;5015576;28;20468;-64
2021/05/25 08:38:23;;;;;;;4.13;0.97;;;14.80;95.50;;;;;;5015980;28;20449;-64
2021/05/25 08:40:51;;;;;;;1.40;0.90;;;14.80;96.40;;;;;;5015765;28;20476;-64
2021/05/25 08:43:17;;;;;;;1.10;0.60;;;14.80;96.20;;;;;;5016531;28;20457;-61
2021/05/25 08:45:44;;;;;;;1.10;1.00;;;14.50;97.00;;;;;;5015454;28;20448;-63
2021/05/25 08:48:11;;;;;;;1.37;0.70;;;14.40;96.20;;;;;;5015804;28;20453;-63
2021/05/25 08:50:38;;;;;;;0.73;0.67;;;14.20;96.60;;;;;;5015032;28;20472;-63
2021/05/25 08:53:06;;;;;;;0.83;0.50;;;14.10;97.20;;;;;;5015498;28;20474;-63
2021/05/25 08:55:34;;;;;;;2.00;0.73;;;14.20;97.70;;;;;;5015216;28;20500;-63
2021/05/25 08:58:01;;;;;;;1.50;0.73;;;14.10;97.00;;;;;;5015262;28;20539;-64
2021/05/25 09:00:27;;;;;;;1.80;0.70;;;14.10;97.00;;;;;;5014922;28;20548;-63
2021/05/25 09:02:53;;;;;;;0.93;0.83;;;14.10;97.00;;;;;;5015248;28;20442;-63
2021/05/25 09:05:21;;;;;;;0.80;0.70;;;14.00;98.30;;;;;;5015349;28;20457;-64
2021/05/25 09:07:49;;;;;;;3.60;0.50;;;13.80;98.50;;;;;;5014875;28;20817;-64
2021/05/25 09:10:19;;;;;;;5.30;0.90;;;13.80;98.50;;;;;;5015092;28;20548;-63
2021/05/25 09:12:47;;;;;;;1.27;0.60;;;13.70;98.70;;;;;;5014941;28;20515;-63
2021/05/25 09:15:16;;;;;;;3.20;1.07;;;13.50;99.20;;;;;;5014978;28;20460;-63
2021/05/25 09:17:44;;;;;;;0.80;0.80;;;13.40;99.90;;;;;;5015217;28;20951;-64
2021/05/25 09:20:11;;;;;;;1.63;0.80;;;13.40;99.90;;;;;;5014886;28;20492;-64
2021/05/25 09:22:39;;;;;;;1.40;1.07;;;13.50;99.90;;;;;;5015045;28;20552;-64
2021/05/25 09:25:13;;;;;;;0.93;0.50;;;13.70;99.90;;;;;;5015115;28;20548;-66
2021/05/25 09:27:43;;;;;;;1.03;0.50;;;14.00;99.90;;;;;;5015479;28;20807;-67
2021/05/25 09:30:19;;;;;;;0.73;0.73;;;14.10;99.10;;;;;;5015741;28;20526;-66
2021/05/25 09:32:48;;;;;;;1.90;0.93;;;14.10;99.70;;;;;;5014846;28;20445;-63
2021/05/25 09:35:15;;;;;;;1.03;0.50;;;14.20;99.70;;;;;;5014281;28;20445;-65
2021/05/25 09:37:43;;;;;;;1.33;0.90;;;14.20;99.90;;;;;;5014873;28;20459;-61
2021/05/25 09:40:11;;;;;;;4.30;1.70;;;14.60;99.30;;;;;;5015066;28;20528;-64
2021/05/25 09:42:37;;;;;;;9.37;2.50;;;14.90;98.80;;;;;;5014414;28;20515;-62
2021/05/25 09:45:06;;;;;;;2.93;1.03;;;15.10;98.50;;;;;;5014683;28;20452;-63
2021/05/25 09:47:37;;;;;;;3.53;1.20;;;14.80;98.00;;;;;;5014650;28;20457;-63
2021/05/25 09:50:05;;;;;;;3.60;1.17;;;14.60;98.30;;;;;;5015032;28;20491;-64
2021/05/25 09:52:31;;;;;;;1.03;0.70;;;14.70;98.90;;;;;;5014811;28;20480;-64
2021/05/25 09:55:09;;;;;;;1.50;1.17;;;15.20;98.60;;;;;;5014424;28;20943;-65
2021/05/25 09:57:46;;;;;;;1.70;1.20;;;16.10;96.50;;;;;;5014960;28;20444;-65
2021/05/25 10:00:31;;;;;;;1.00;0.73;;;17.30;95.10;;;;;;5016431;28;20939;-66
2021/05/25 10:03:05;;;;;;;1.57;1.33;;;18.10;93.00;;;;;;5018943;28;20464;-65
2021/05/25 10:05:32;;;;;;;3.37;2.17;;;18.10;91.50;;;;;;5031079;28;20452;-65
2021/05/25 10:07:59;;;;;;;6.13;2.33;;;18.20;90.70;;;;;;5019056;28;20460;-65
2021/05/25 10:10:26;;;;;;;6.73;1.50;;;17.80;91.20;;;;;;5019122;28;20492;-66
2021/05/25 10:12:54;;;;;;;1.23;1.17;;;17.90;90.70;;;;;;5018730;28;20457;-67
2021/05/25 10:15:22;;;;;;;1.73;0.70;;;17.70;89.50;;;;;;5018660;28;20460;-66
2021/05/25 10:18:08;;;;;;;1.27;0.90;;;17.30;90.10;;;;;;5018288;28;20457;-63
2021/05/25 10:20:35;;;;;;;4.50;1.47;;;16.80;91.20;;;;;;5018653;28;20497;-65
2021/05/25 10:23:01;;;;;;;2.30;0.90;;;16.70;93.40;;;;;;5018337;28;20437;-66
2021/05/25 10:25:31;;;;;;;5.60;1.97;;;17.10;92.20;;;;;;5018330;28;20452;-66
2021/05/25 10:27:58;;;;;;;10.87;3.07;;;17.80;93.10;;;;;;5018217;28;20441;-66
2021/05/25 10:30:36;;;;;;;2.47;1.23;;;18.10;88.80;;;;;;5018161;28;20456;-65
2021/05/25 10:33:23;;;;;;;2.87;1.10;;;18.30;87.20;;;;;;5018184;28;20454;-65
2021/05/25 10:35:50;;;;;;;3.93;0.70;;;18.20;90.50;;;;;;5018504;28;20477;-66
2021/05/25 10:38:17;;;;;;;1.70;1.13;;;17.90;91.60;;;;;;5018209;28;20511;-63
2021/05/25 10:40:46;;;;;;;1.90;1.10;;;17.60;95.30;;;;;;5018885;28;20488;-63
2021/05/25 10:43:42;;;;;;;2.10;1.10;;;16.80;99.90;;;;;;5018176;28;21013;-63
2021/05/25 10:46:30;;;;;;;2.93;1.20;;;16.40;99.90;;;;;;5019007;28;20790;-65
2021/05/25 10:49:13;;;;;;;3.03;1.10;;;16.50;99.90;;;;;;5014641;28;20456;-63
2021/05/25 10:52:14;;;;;;;4.20;1.10;;;16.60;99.90;;;;;;5017807;28;20495;-62
2021/05/25 10:55:00;;;;;;;2.00;1.20;;;16.60;99.90;;;;;;5018350;28;20437;-64
2021/05/25 10:57:47;;;;;;;1.20;1.03;;;16.50;99.90;;;;;;5018414;28;20461;-63
2021/05/25 11:00:17;;;;;;;0.80;0.77;;;16.60;99.90;;;;;;5017411;28;20448;-63
2021/05/25 11:02:49;;;;;;;2.10;0.93;;;17.50;99.90;;;;;;5017653;28;20437;-63
2021/05/25 11:05:51;;;;;;;2.40;1.10;;;18.10;99.50;;;;;;5017549;28;20437;-62
2021/05/25 11:08:41;;;;;;;1.50;0.70;;;18.50;98.60;;;;;;5018328;28;20802;-68
2021/05/25 11:11:29;;;;;;;1.07;0.70;;;19.40;99.00;;;;;;5017683;28;20481;-64
2021/05/25 11:13:56;;;;;;;1.80;1.23;;;20.10;95.80;;;;;;5016753;28;20437;-63
2021/05/25 11:16:32;;;;;;;2.47;1.00;;;20.60;91.30;;;;;;5018083;28;20465;-63
2021/05/25 11:19:45;;;;;;;1.93;0.80;;;20.30;91.40;;;;;;5018035;28;20441;-64
2021/05/25 11:22:16;;;;;;;0.93;0.70;;;19.40;91.80;;;;;;5016799;28;20468;-66
2021/05/25 11:24:53;;;;;;;1.87;0.80;;;18.10;95.80;;;;;;5017077;28;20445;-70
2021/05/25 11:27:28;;;;;;;0.77;0.70;;;16.80;97.90;;;;;;5017077;28;20440;-62
2021/05/25 11:29:57;;;;;;;2.43;1.20;;;16.60;99.90;;;;;;5016612;28;20558;-63
2021/05/25 11:32:24;;;;;;;2.97;1.10;;;17.10;99.90;;;;;;5016858;28;20851;-64
2021/05/25 11:34:58;;;;;;;1.43;0.90;;;17.30;99.20;;;;;;5017247;28;20452;-64
2021/05/25 11:37:26;;;;;;;1.10;1.03;;;17.20;95.70;;;;;;5028119;28;20548;-65
2021/05/25 11:39:53;;;;;;;4.73;0.80;;;17.10;93.70;;;;;;5017324;28;20457;-65
2021/05/25 11:42:24;;;;;;;1.13;0.80;;;17.10;95.70;;;;;;5017693;28;20499;-62
2021/05/25 11:44:52;;;;;;;1.77;0.90;;;17.40;94.40;;;;;;5018148;28;20452;-63
2021/05/25 11:47:18;;;;;;;1.43;0.80;;;16.90;91.00;;;;;;5017449;28;20818;-64
2021/05/25 11:49:45;;;;;;;0.70;0.70;;;16.60;92.00;;;;;;5016732;28;20453;-63
2021/05/25 11:52:21;;;;;;;1.03;0.67;;;16.60;93.40;;;;;;5016591;28;20476;-64
2021/05/25 11:54:48;;;;;;;0.90;0.80;;;16.90;93.10;;;;;;5016480;28;20452;-64
2021/05/25 11:57:37;;;;;;;0.97;0.93;;;17.00;94.90;;;;;;5016186;28;20555;-64
2021/05/25 12:00:08;;;;;;;2.07;0.97;;;17.00;93.50;;;;;;5016041;28;20516;-63
2021/05/25 12:02:34;;;;;;;1.47;1.10;;;17.40;92.30;;;;;;5015530;28;20481;-65
2021/05/25 12:05:06;;;;;;;2.00;0.80;;;17.40;91.60;;;;;;5016595;28;20460;-64
2021/05/25 12:07:34;;;;;;;1.27;1.10;;;17.20;90.10;;;;;;5015870;28;20451;-65
2021/05/25 12:10:02;;;;;;;1.63;0.70;;;17.30;91.50;;;;;;5015782;28;20491;-64
2021/05/25 12:12:29;;;;;;;1.70;0.70;;;17.20;89.30;;;;;;5016330;28;20473;-62
2021/05/25 12:14:58;;;;;;;1.33;0.87;;;16.80;88.10;;;;;;5016336;28;20452;-62
2021/05/25 12:17:26;;;;;;;0.70;0.60;;;16.90;91.20;;;;;;5016275;28;20461;-63
2021/05/25 12:19:54;;;;;;;1.10;0.73;;;16.60;89.20;;;;;;5016133;28;20445;-65
2021/05/25 12:22:32;;;;;;;3.33;1.13;;;16.70;89.00;;;;;;5015619;28;20472;-62
2021/05/25 12:25:14;;;;;;;2.77;0.90;;;16.60;86.90;;;;;;5016238;28;20436;-63
2021/05/25 12:27:41;;;;;;;4.80;2.63;;;16.70;90.00;;;;;;5017602;28;20440;-63
2021/05/25 12:30:09;;;;;;;6.50;1.20;;;17.00;87.30;;;;;;5016803;28;20928;-64
2021/05/25 12:32:35;;;;;;;3.13;1.13;;;17.50;80.30;;;;;;5016703;28;20523;-63
2021/05/25 12:35:02;;;;;;;1.50;1.40;;;17.40;80.20;;;;;;5016168;28;20456;-64
2021/05/25 12:37:29;;;;;;;1.37;0.70;;;17.60;87.70;;;;;;5016523;28;20585;-64
2021/05/25 12:40:02;;;;;;;1.10;0.80;;;17.90;85.20;;;;;;5016465;28;20874;-64
2021/05/25 12:42:34;;;;;;;1.20;0.70;;;18.20;83.70;;;;;;5016487;28;20584;-63
2021/05/25 12:45:14;;;;;;;1.77;0.90;;;18.20;78.90;;;;;;5016017;28;20452;-64
2021/05/25 12:47:51;;;;;;;4.13;1.07;;;17.80;79.30;;;;;;5016592;28;20444;-64
2021/05/25 12:50:25;;;;;;;1.63;1.50;;;17.60;83.90;;;;;;5017097;28;20452;-65
2021/05/25 12:53:02;;;;;;;1.63;0.80;;;17.50;82.50;;;;;;5017122;28;20441;-64
2021/05/25 12:55:28;;;;;;;1.07;0.80;;;17.40;86.90;;;;;;5016393;28;20443;-63
2021/05/25 12:57:55;;;;;;;1.47;0.90;;;17.60;90.60;;;;;;5016705;28;20452;-63
2021/05/25 13:00:28;;;;;;;1.17;1.10;;;17.60;89.40;;;;;;5016915;28;20507;-64
2021/05/25 13:02:56;;;;;;;3.40;0.70;;;17.80;87.60;;;;;;5017779;28;20444;-64
2021/05/25 13:05:25;;;;;;;1.07;0.90;;;18.00;83.00;;;;;;5016708;28;20506;-63
2021/05/25 13:07:56;;;;;;;1.20;0.77;;;17.60;78.50;;;;;;5020297;28;20453;-63
2021/05/25 13:10:25;;;;;;;1.27;0.90;;;17.90;83.20;;;;;;5021491;28;20860;-63
2021/05/25 13:12:56;;;;;;;3.00;0.80;;;18.10;75.20;;;;;;5016650;28;20508;-63
2021/05/25 13:15:35;;;;;;;1.20;0.80;;;18.30;82.70;;;;;;5016622;28;20847;-64
2021/05/25 13:18:01;;;;;;;0.63;0.60;;;18.40;74.50;;;;;;5016438;28;20433;-63
2021/05/25 13:20:28;;;;;;;1.90;0.90;;;18.30;79.30;;;;;;5016100;28;20444;-64
2021/05/25 13:22:55;;;;;;;1.53;0.63;;;18.60;80.30;;;;;;5015578;28;20433;-64
2021/05/25 13:25:30;;;;;;;2.50;1.00;;;18.50;71.30;;;;;;5016390;28;20553;-63
2021/05/25 13:27:57;;;;;;;2.10;1.00;;;18.00;71.80;;;;;;5016294;28;20503;-63
2021/05/25 13:30:40;;;;;;;2.20;0.93;;;17.80;70.60;;;;;;5016416;28;20539;-64
2021/05/25 13:33:06;;;;;;;1.03;0.90;;;17.60;77.00;;;;;;5016442;28;20437;-63
2021/05/25 13:35:33;;;;;;;1.93;0.97;;;17.60;75.20;;;;;;5015830;28;20540;-64
2021/05/25 13:38:02;;;;;;;1.67;0.83;;;17.40;74.00;;;;;;5015093;28;20441;-65
2021/05/25 13:40:28;;;;;;;1.10;0.80;;;17.20;74.80;;;;;;5014904;28;20488;-64
2021/05/25 13:42:54;;;;;;;2.30;1.23;;;17.00;75.40;;;;;;5015743;28;20441;-62
2021/05/25 13:45:21;;;;;;;1.70;0.80;;;17.00;78.60;;;;;;5015780;28;20437;-65
2021/05/25 13:47:48;;;;;;;1.10;0.97;;;16.60;77.70;;;;;;5015371;28;20453;-65
2021/05/25 13:50:24;;;;;;;1.53;0.97;;;16.30;77.20;;;;;;5016168;28;20453;-64
2021/05/25 13:52:52;;;;;;;1.20;0.77;;;16.10;78.80;;;;;;5015866;28;20796;-65
2021/05/25 13:55:21;;;;;;;1.70;0.97;;;16.20;76.30;;;;;;5017015;28;20448;-63
2021/05/25 13:57:48;;;;;;;1.30;0.97;;;16.40;79.70;;;;;;5015281;28;20480;-64
2021/05/25 14:00:17;;;;;;;1.10;0.90;;;16.70;78.90;;;;;;5015245;28;20521;-63
2021/05/25 14:02:45;;;;;;;4.47;1.00;;;16.50;77.00;;;;;;5015984;28;20448;-64
2021/05/25 14:05:14;;;;;;;3.40;1.00;;;16.50;78.40;;;;;;5015446;28;20462;-64
2021/05/25 14:07:42;;;;;;;3.10;0.93;;;17.10;84.40;;;;;;5017055;28;20456;-64
2021/05/25 14:10:10;;;;;;;0.70;0.70;;;17.40;77.00;;;;;;5015015;28;21015;-65
2021/05/25 14:12:36;;;;;;;4.37;0.50;;;17.80;76.60;;;;;;5013720;28;20979;-64
2021/05/25 14:15:03;;;;;;;2.00;1.30;;;18.10;74.70;;;;;;5015362;28;20514;-64
2021/05/25 14:17:30;;;;;;;1.07;0.97;;;18.20;72.70;;;;;;5016963;28;20480;-63
2021/05/25 14:19:56;;;;;;;0.97;0.97;;;18.20;70.10;;;;;;5015728;28;20453;-63
2021/05/25 14:22:23;;;;;;;2.77;0.93;;;18.40;76.20;;;;;;5015808;28;20614;-63
2021/05/25 14:24:51;;;;;;;0.90;0.87;;;18.40;72.60;;;;;;5017835;28;20453;-66
2021/05/25 14:27:18;;;;;;;1.90;0.83;;;18.60;70.80;;;;;;5017111;28;20465;-66
2021/05/25 14:29:45;;;;;;;2.00;1.00;;;18.80;72.20;;;;;;5016433;28;20951;-64
2021/05/25 14:32:13;;;;;;;1.00;1.00;;;18.80;71.80;;;;;;5015967;28;20473;-64
2021/05/25 14:34:40;;;;;;;1.30;0.90;;;18.80;74.30;;;;;;5015389;28;20479;-64
2021/05/25 14:37:06;;;;;;;1.60;0.70;;;18.70;70.60;;;;;;5015250;28;20476;-65
2021/05/25 14:39:34;;;;;;;2.00;0.90;;;18.70;71.20;;;;;;5014522;28;20460;-64
2021/05/25 14:42:00;;;;;;;2.80;1.43;;;18.40;71.10;;;;;;5020952;28;20527;-64
2021/05/25 14:44:26;;;;;;;2.63;0.80;;;18.00;73.10;;;;;;5015606;28;20798;-65
2021/05/25 14:46:56;;;;;;;2.00;0.80;;;17.60;72.80;;;;;;5014356;28;20453;-64
2021/05/25 14:49:23;;;;;;;0.90;0.70;;;17.40;74.20;;;;;;5016595;28;20779;-65
2021/05/25 14:51:49;;;;;;;1.60;0.80;;;17.20;73.20;;;;;;5017691;28;20476;-65
2021/05/25 14:54:15;;;;;;;3.07;1.03;;;17.20;75.00;;;;;;5018101;28;20449;-66
2021/05/25 14:56:44;;;;;;;1.43;0.70;;;17.30;71.60;;;;;;5017673;28;20476;-65
2021/05/25 14:59:13;;;;;;;0.80;0.73;;;17.10;71.30;;;;;;5017393;28;20963;-66
2021/05/25 15:01:46;;;;;;;1.10;0.93;;;17.20;70.70;;;;;;5017311;28;20484;-65
2021/05/25 15:04:15;;;;;;;2.20;0.80;;;17.20;68.70;;;;;;5017222;28;20441;-64
2021/05/25 15:06:49;;;;;;;1.00;0.67;;;17.10;69.80;;;;;;5017165;28;20576;-65
2021/05/25 15:09:19;;;;;;;2.20;1.00;;;16.90;69.70;;;;;;5018202;28;20798;-65
2021/05/25 15:11:50;;;;;;;1.67;0.90;;;16.80;69.80;;;;;;5017653;28;20473;-65
2021/05/25 15:14:17;;;;;;;1.67;1.07;;;16.90;73.30;;;;;;5017123;28;20456;-66
2021/05/25 15:16:43;;;;;;;2.03;0.80;;;17.00;74.30;;;;;;5017226;28;20481;-65
2021/05/25 15:19:09;;;;;;;1.70;1.00;;;16.90;71.20;;;;;;5017025;28;21007;-65
2021/05/25 15:21:35;;;;;;;1.83;0.97;;;16.70;70.90;;;;;;5017136;28;20465;-65
2021/05/25 15:24:02;;;;;;;1.23;1.00;;;16.70;72.20;;;;;;5016565;28;20907;-64
2021/05/25 15:26:28;;;;;;;3.37;1.10;;;16.70;72.60;;;;;;5016709;28;20834;-63
2021/05/25 15:28:55;;;;;;;1.07;0.77;;;16.90;73.80;;;;;;5016968;28;20448;-64
2021/05/25 15:31:21;;;;;;;2.00;0.80;;;17.10;72.10;;;;;;5017208;28;20476;-65
2021/05/25 15:33:47;;;;;;;2.50;0.80;;;17.10;69.70;;;;;;5017125;28;20461;-63
2021/05/25 15:36:15;;;;;;;1.70;0.90;;;17.10;70.30;;;;;;5017128;28;21029;-65
2021/05/25 15:38:42;;;;;;;1.33;1.03;;;16.80;69.30;;;;;;5017217;28;20468;-68
2021/05/25 15:41:08;;;;;;;1.00;0.70;;;16.90;70.30;;;;;;5016680;28;20483;-67
2021/05/25 15:43:35;;;;;;;2.40;1.27;;;16.80;69.30;;;;;;5017447;28;20456;-68
2021/05/25 15:46:02;;;;;;;1.47;1.07;;;16.80;68.50;;;;;;5016611;28;20948;-65
2021/05/25 15:48:28;;;;;;;4.23;1.00;;;16.50;68.80;;;;;;5016642;28;20971;-65
2021/05/25 15:50:54;;;;;;;1.33;0.70;;;16.30;69.10;;;;;;5017049;28;20818;-65
2021/05/25 15:53:24;;;;;;;3.10;0.93;;;16.20;69.50;;;;;;5017119;28;20456;-66
2021/05/25 15:55:51;;;;;;;1.93;0.90;;;16.10;69.70;;;;;;5017773;28;20453;-65
2021/05/25 15:58:18;;;;;;;1.17;0.90;;;16.10;69.80;;;;;;5016770;28;20526;-66
2021/05/25 16:00:46;;;;;;;1.27;0.70;;;16.00;71.00;;;;;;5015887;28;20484;-66
2021/05/25 16:03:13;;;;;;;2.73;0.70;;;15.90;70.00;;;;;;5018199;28;20453;-65
2021/05/25 16:05:40;;;;;;;1.40;1.20;;;15.90;70.90;;;;;;5017427;28;20456;-66
2021/05/25 16:08:07;;;;;;;0.70;0.70;;;16.00;70.00;;;;;;5016557;28;20450;-65
2021/05/25 16:10:33;;;;;;;1.13;1.10;;;16.10;72.20;;;;;;5016906;28;20449;-66
2021/05/25 16:13:00;;;;;;;1.03;1.00;;;16.10;70.30;;;;;;5019691;28;20464;-69
2021/05/25 16:15:27;;;;;;;1.57;1.13;;;16.10;69.90;;;;;;5020576;28;20453;-68
2021/05/25 16:17:54;;;;;;;2.67;1.03;;;16.20;72.80;;;;;;5016493;28;20484;-68
2021/05/25 16:20:22;;;;;;;1.27;0.63;;;16.10;72.90;;;;;;5016194;28;20453;-67
2021/05/25 16:22:49;;;;;;;2.03;0.87;;;16.20;73.20;;;;;;5016003;28;20453;-67
2021/05/25 16:25:17;;;;;;;3.20;1.00;;;16.20;72.40;;;;;;5016074;28;20539;-66
2021/05/25 16:27:43;;;;;;;1.83;1.20;;;16.20;72.40;;;;;;5015848;28;20453;-68
2021/05/25 16:30:10;;;;;;;1.73;1.20;;;16.20;74.20;;;;;;5015829;28;20486;-68
2021/05/25 16:32:36;;;;;;;1.50;0.90;;;16.30;74.50;;;;;;5015823;28;20927;-68
2021/05/25 16:35:04;;;;;;;2.60;1.10;;;16.30;74.50;;;;;;5015674;28;20453;-65
2021/05/25 16:37:31;;;;;;;0.87;0.87;;;16.40;73.80;;;;;;5015390;28;20481;-65
2021/05/25 16:39:57;;;;;;;2.47;0.90;;;16.30;73.60;;;;;;5015490;28;20445;-64
2021/05/25 16:42:24;;;;;;;1.50;0.87;;;16.30;73.70;;;;;;5015377;28;20481;-64
2021/05/25 16:44:50;;;;;;;1.60;1.30;;;16.20;74.30;;;;;;5015313;28;20453;-64
2021/05/25 16:47:16;;;;;;;1.67;0.97;;;16.50;71.70;;;;;;5015512;28;20449;-65
2021/05/25 16:49:42;;;;;;;1.80;1.27;;;16.60;71.10;;;;;;5015622;28;20452;-65
2021/05/25 16:52:08;;;;;;;1.70;0.90;;;16.70;71.80;;;;;;5015223;28;20477;-64
2021/05/25 16:54:35;;;;;;;1.23;1.07;;;16.60;70.50;;;;;;5015064;28;21002;-64
2021/05/25 16:57:02;;;;;;;2.43;0.87;;;16.40;69.00;;;;;;5015282;28;20889;-64